sensor_id;sensor_type;location;lat;lon;timestamp;P1;durP1;ratioP1;P2;durP2;ratioP2
68608;SDS011;55581;46.718;7.690;2022-11-20T00:01:13;6.07;;;1.00;;
68608;SDS011;55581;46.718;7.690;2022-11-20T00:03:40;3.85;;;0.80;;
68608;SDS011;55581;46.718;7.690;2022-11-20T00:06:07;5.30;;;1.30;;
68608;SDS011;55581;46.718;7.690;2022-11-20T00:08:34;8.43;;;1.42;;
68608;SDS011;55581;46.718;7.690;2022-11-20T00:11:04;3.73;;;0.83;;
68608;SDS011;55581;46.718;7.690;2022-11-20T00:13:38;4.88;;;0.70;;
68608;SDS011;55581;46.718;7.690;2022-11-20T00:16:04;3.65;;;0.50;;
68608;SDS011;55581;46.718;7.690;2022-11-20T00:18:32;3.53;;;0.73;;
68608;SDS011;55581;46.718;7.690;2022-11-20T00:21:02;2.83;;;0.70;;
68608;SDS011;55581;46.718;7.690;2022-11-20T00:23:30;2.27;;;0.40;;
68608;SDS011;55581;46.718;7.690;2022-11-20T00:25:55;4.68;;;0.98;;
68608;SDS011;55581;46.718;7.690;2022-11-20T00:28:21;3.20;;;0.77;;
68608;SDS011;55581;46.718;7.690;2022-11-20T00:30:48;3.65;;;0.88;;
68608;SDS011;55581;46.718;7.690;2022-11-20T00:33:13;12.57;;;2.90;;
68608;SDS011;55581;46.718;7.690;2022-11-20T00:35:41;6.63;;;2.00;;
68608;SDS011;55581;46.718;7.690;2022-11-20T00:38:10;3.83;;;0.65;;
68608;SDS011;55581;46.718;7.690;2022-11-20T00:40:35;3.97;;;0.93;;
68608;SDS011;55581;46.718;7.690;2022-11-20T00:43:00;5.45;;;1.40;;
68608;SDS011;55581;46.718;7.690;2022-11-20T00:45:26;5.97;;;1.27;;
68608;SDS011;55581;46.718;7.690;2022-11-20T00:47:53;3.77;;;1.20;;
68608;SDS011;55581;46.718;7.690;2022-11-20T00:50:20;5.18;;;1.17;;
68608;SDS011;55581;46.718;7.690;2022-11-20T00:52:45;7.60;;;1.60;;
68608;SDS011;55581;46.718;7.690;2022-11-20T00:55:13;6.40;;;1.27;;
68608;SDS011;55581;46.718;7.690;2022-11-20T00:57:39;3.53;;;0.93;;
68608;SDS011;55581;46.718;7.690;2022-11-20T01:00:04;4.77;;;1.20;;
68608;SDS011;55581;46.718;7.690;2022-11-20T01:02:30;5.50;;;1.08;;
68608;SDS011;55581;46.718;7.690;2022-11-20T01:04:58;5.15;;;0.80;;
68608;SDS011;55581;46.718;7.690;2022-11-20T01:07:23;4.23;;;0.83;;
68608;SDS011;55581;46.718;7.690;2022-11-20T01:09:48;6.67;;;0.83;;
68608;SDS011;55581;46.718;7.690;2022-11-20T01:12:14;3.10;;;0.50;;
68608;SDS011;55581;46.718;7.690;2022-11-20T01:14:39;3.45;;;0.60;;
68608;SDS011;55581;46.718;7.690;2022-11-20T01:17:05;4.00;;;0.57;;
68608;SDS011;55581;46.718;7.690;2022-11-20T01:19:33;4.23;;;0.60;;
68608;SDS011;55581;46.718;7.690;2022-11-20T01:21:58;3.17;;;0.75;;
68608;SDS011;55581;46.718;7.690;2022-11-20T01:24:24;2.73;;;0.50;;
68608;SDS011;55581;46.718;7.690;2022-11-20T01:26:50;6.50;;;0.93;;
68608;SDS011;55581;46.718;7.690;2022-11-20T01:29:17;2.97;;;0.52;;
68608;SDS011;55581;46.718;7.690;2022-11-20T01:31:47;2.75;;;0.60;;
68608;SDS011;55581;46.718;7.690;2022-11-20T01:34:18;3.03;;;0.47;;
68608;SDS011;55581;46.718;7.690;2022-11-20T01:36:44;5.10;;;0.50;;
68608;SDS011;55581;46.718;7.690;2022-11-20T01:39:15;2.97;;;0.60;;
68608;SDS011;55581;46.718;7.690;2022-11-20T01:41:44;4.07;;;0.73;;
68608;SDS011;55581;46.718;7.690;2022-11-20T01:44:50;3.90;;;0.80;;
68608;SDS011;55581;46.718;7.690;2022-11-20T01:47:44;3.33;;;0.63;;
68608;SDS011;55581;46.718;7.690;2022-11-20T01:50:24;2.63;;;0.40;;
68608;SDS011;55581;46.718;7.690;2022-11-20T01:52:55;2.50;;;0.43;;
68608;SDS011;55581;46.718;7.690;2022-11-20T01:55:25;2.25;;;0.38;;
68608;SDS011;55581;46.718;7.690;2022-11-20T01:57:55;3.03;;;0.50;;
68608;SDS011;55581;46.718;7.690;2022-11-20T02:00:21;3.28;;;0.73;;
68608;SDS011;55581;46.718;7.690;2022-11-20T02:02:48;3.20;;;0.60;;
68608;SDS011;55581;46.718;7.690;2022-11-20T02:05:32;3.40;;;0.70;;
68608;SDS011;55581;46.718;7.690;2022-11-20T02:08:19;5.18;;;0.93;;
68608;SDS011;55581;46.718;7.690;2022-11-20T02:10:45;3.27;;;0.80;;
68608;SDS011;55581;46.718;7.690;2022-11-20T02:13:10;3.85;;;0.85;;
68608;SDS011;55581;46.718;7.690;2022-11-20T02:15:54;4.13;;;0.97;;
68608;SDS011;55581;46.718;7.690;2022-11-20T02:18:20;3.55;;;0.60;;
68608;SDS011;55581;46.718;7.690;2022-11-20T02:20:47;6.60;;;1.25;;
68608;SDS011;55581;46.718;7.690;2022-11-20T02:26:19;4.03;;;1.00;;
68608;SDS011;55581;46.718;7.690;2022-11-20T02:28:46;6.97;;;1.80;;
68608;SDS011;55581;46.718;7.690;2022-11-20T02:31:13;3.95;;;1.08;;
68608;SDS011;55581;46.718;7.690;2022-11-20T02:33:38;3.57;;;0.80;;
68608;SDS011;55581;46.718;7.690;2022-11-20T02:36:03;7.47;;;1.67;;
68608;SDS011;55581;46.718;7.690;2022-11-20T02:38:29;4.28;;;1.17;;
68608;SDS011;55581;46.718;7.690;2022-11-20T02:40:55;3.40;;;1.20;;
68608;SDS011;55581;46.718;7.690;2022-11-20T02:43:20;3.27;;;0.80;;
68608;SDS011;55581;46.718;7.690;2022-11-20T02:45:45;5.18;;;0.85;;
68608;SDS011;55581;46.718;7.690;2022-11-20T02:48:11;3.23;;;0.90;;
68608;SDS011;55581;46.718;7.690;2022-11-20T02:50:37;3.77;;;1.03;;
68608;SDS011;55581;46.718;7.690;2022-11-20T02:53:05;5.45;;;0.80;;
68608;SDS011;55581;46.718;7.690;2022-11-20T02:55:31;6.47;;;1.20;;
68608;SDS011;55581;46.718;7.690;2022-11-20T02:57:57;3.30;;;0.70;;
68608;SDS011;55581;46.718;7.690;2022-11-20T03:00:22;4.68;;;1.00;;
68608;SDS011;55581;46.718;7.690;2022-11-20T03:02:47;3.97;;;0.57;;
68608;SDS011;55581;46.718;7.690;2022-11-20T03:05:13;3.47;;;0.80;;
68608;SDS011;55581;46.718;7.690;2022-11-20T03:07:38;5.73;;;0.70;;
68608;SDS011;55581;46.718;7.690;2022-11-20T03:10:04;3.13;;;0.50;;
68608;SDS011;55581;46.718;7.690;2022-11-20T03:12:30;4.28;;;0.80;;
68608;SDS011;55581;46.718;7.690;2022-11-20T03:14:55;3.23;;;0.60;;
68608;SDS011;55581;46.718;7.690;2022-11-20T03:17:21;2.00;;;0.50;;
68608;SDS011;55581;46.718;7.690;2022-11-20T03:19:46;2.53;;;0.70;;
68608;SDS011;55581;46.718;7.690;2022-11-20T03:22:12;3.53;;;0.70;;
68608;SDS011;55581;46.718;7.690;2022-11-20T03:24:37;3.83;;;0.83;;
68608;SDS011;55581;46.718;7.690;2022-11-20T03:27:03;2.47;;;0.50;;
68608;SDS011;55581;46.718;7.690;2022-11-20T03:29:28;2.93;;;0.80;;
68608;SDS011;55581;46.718;7.690;2022-11-20T03:31:53;3.40;;;0.50;;
68608;SDS011;55581;46.718;7.690;2022-11-20T03:34:19;2.60;;;0.53;;
68608;SDS011;55581;46.718;7.690;2022-11-20T03:36:44;3.20;;;0.60;;
68608;SDS011;55581;46.718;7.690;2022-11-20T03:39:10;2.70;;;0.50;;
68608;SDS011;55581;46.718;7.690;2022-11-20T03:41:36;8.33;;;0.60;;
68608;SDS011;55581;46.718;7.690;2022-11-20T03:44:04;3.17;;;0.43;;
68608;SDS011;55581;46.718;7.690;2022-11-20T03:46:33;2.60;;;0.50;;
68608;SDS011;55581;46.718;7.690;2022-11-20T03:49:02;4.40;;;0.60;;
68608;SDS011;55581;46.718;7.690;2022-11-20T03:51:31;3.00;;;0.55;;
68608;SDS011;55581;46.718;7.690;2022-11-20T03:53:59;4.25;;;0.50;;
68608;SDS011;55581;46.718;7.690;2022-11-20T03:56:27;2.05;;;0.50;;
68608;SDS011;55581;46.718;7.690;2022-11-20T03:58:56;1.75;;;0.20;;
68608;SDS011;55581;46.718;7.690;2022-11-20T04:01:23;3.53;;;0.30;;
68608;SDS011;55581;46.718;7.690;2022-11-20T04:03:51;3.30;;;0.40;;
68608;SDS011;55581;46.718;7.690;2022-11-20T04:06:21;2.83;;;0.63;;
68608;SDS011;55581;46.718;7.690;2022-11-20T04:08:48;2.95;;;0.30;;
68608;SDS011;55581;46.718;7.690;2022-11-20T04:11:20;2.22;;;0.20;;
68608;SDS011;55581;46.718;7.690;2022-11-20T04:13:49;2.10;;;0.33;;
68608;SDS011;55581;46.718;7.690;2022-11-20T04:16:22;3.10;;;0.30;;
68608;SDS011;55581;46.718;7.690;2022-11-20T04:18:53;2.45;;;0.50;;
68608;SDS011;55581;46.718;7.690;2022-11-20T04:21:22;3.95;;;0.47;;
68608;SDS011;55581;46.718;7.690;2022-11-20T04:23:48;3.40;;;0.40;;
68608;SDS011;55581;46.718;7.690;2022-11-20T04:26:17;2.90;;;0.50;;
68608;SDS011;55581;46.718;7.690;2022-11-20T04:28:43;2.75;;;0.52;;
68608;SDS011;55581;46.718;7.690;2022-11-20T04:31:13;1.97;;;0.30;;
68608;SDS011;55581;46.718;7.690;2022-11-20T04:33:41;1.58;;;0.30;;
68608;SDS011;55581;46.718;7.690;2022-11-20T04:36:07;1.92;;;0.30;;
68608;SDS011;55581;46.718;7.690;2022-11-20T04:38:43;2.47;;;0.45;;
68608;SDS011;55581;46.718;7.690;2022-11-20T04:41:11;2.80;;;0.30;;
68608;SDS011;55581;46.718;7.690;2022-11-20T04:43:40;2.58;;;0.40;;
68608;SDS011;55581;46.718;7.690;2022-11-20T04:46:05;2.07;;;0.30;;
68608;SDS011;55581;46.718;7.690;2022-11-20T04:48:31;2.17;;;0.30;;
68608;SDS011;55581;46.718;7.690;2022-11-20T04:50:56;1.60;;;0.40;;
68608;SDS011;55581;46.718;7.690;2022-11-20T04:53:22;3.25;;;0.30;;
68608;SDS011;55581;46.718;7.690;2022-11-20T04:55:48;1.87;;;0.40;;
68608;SDS011;55581;46.718;7.690;2022-11-20T04:58:14;3.42;;;0.20;;
68608;SDS011;55581;46.718;7.690;2022-11-20T05:00:40;2.55;;;0.32;;
68608;SDS011;55581;46.718;7.690;2022-11-20T05:03:05;2.33;;;0.50;;
68608;SDS011;55581;46.718;7.690;2022-11-20T05:05:33;2.83;;;0.28;;
68608;SDS011;55581;46.718;7.690;2022-11-20T05:07:59;2.43;;;0.27;;
68608;SDS011;55581;46.718;7.690;2022-11-20T05:10:25;2.88;;;0.50;;
68608;SDS011;55581;46.718;7.690;2022-11-20T05:12:50;2.67;;;0.27;;
68608;SDS011;55581;46.718;7.690;2022-11-20T05:15:16;2.72;;;0.30;;
68608;SDS011;55581;46.718;7.690;2022-11-20T05:17:46;2.03;;;0.20;;
68608;SDS011;55581;46.718;7.690;2022-11-20T05:20:12;1.63;;;0.20;;
68608;SDS011;55581;46.718;7.690;2022-11-20T05:22:39;2.95;;;0.38;;
68608;SDS011;55581;46.718;7.690;2022-11-20T05:25:09;2.43;;;0.57;;
68608;SDS011;55581;46.718;7.690;2022-11-20T05:27:34;3.42;;;0.20;;
68608;SDS011;55581;46.718;7.690;2022-11-20T05:30:00;2.20;;;0.20;;
68608;SDS011;55581;46.718;7.690;2022-11-20T05:32:25;1.50;;;0.20;;
68608;SDS011;55581;46.718;7.690;2022-11-20T05:34:51;2.33;;;0.30;;
68608;SDS011;55581;46.718;7.690;2022-11-20T05:37:17;2.65;;;0.30;;
68608;SDS011;55581;46.718;7.690;2022-11-20T05:39:42;1.67;;;0.20;;
68608;SDS011;55581;46.718;7.690;2022-11-20T05:42:08;3.33;;;0.40;;
68608;SDS011;55581;46.718;7.690;2022-11-20T05:44:51;2.47;;;0.40;;
68608;SDS011;55581;46.718;7.690;2022-11-20T05:47:19;2.78;;;0.40;;
68608;SDS011;55581;46.718;7.690;2022-11-20T05:49:44;1.37;;;0.20;;
68608;SDS011;55581;46.718;7.690;2022-11-20T05:52:12;1.90;;;0.20;;
68608;SDS011;55581;46.718;7.690;2022-11-20T05:54:38;2.80;;;0.50;;
68608;SDS011;55581;46.718;7.690;2022-11-20T05:57:04;2.80;;;0.50;;
68608;SDS011;55581;46.718;7.690;2022-11-20T05:59:29;4.68;;;0.60;;
68608;SDS011;55581;46.718;7.690;2022-11-20T06:01:55;2.47;;;0.70;;
68608;SDS011;55581;46.718;7.690;2022-11-20T06:04:22;2.30;;;0.55;;
68608;SDS011;55581;46.718;7.690;2022-11-20T06:06:48;1.80;;;0.30;;
68608;SDS011;55581;46.718;7.690;2022-11-20T06:09:13;2.80;;;0.30;;
68608;SDS011;55581;46.718;7.690;2022-11-20T06:11:39;2.63;;;0.30;;
68608;SDS011;55581;46.718;7.690;2022-11-20T06:14:04;1.50;;;0.20;;
68608;SDS011;55581;46.718;7.690;2022-11-20T06:16:29;2.13;;;0.20;;
68608;SDS011;55581;46.718;7.690;2022-11-20T06:18:55;2.13;;;0.30;;
68608;SDS011;55581;46.718;7.690;2022-11-20T06:21:21;1.50;;;0.30;;
68608;SDS011;55581;46.718;7.690;2022-11-20T06:23:50;1.73;;;0.20;;
68608;SDS011;55581;46.718;7.690;2022-11-20T06:26:21;1.73;;;0.20;;
68608;SDS011;55581;46.718;7.690;2022-11-20T06:28:48;3.40;;;0.30;;
68608;SDS011;55581;46.718;7.690;2022-11-20T06:31:15;2.10;;;0.37;;
68608;SDS011;55581;46.718;7.690;2022-11-20T06:33:42;3.47;;;0.40;;
68608;SDS011;55581;46.718;7.690;2022-11-20T06:36:09;2.47;;;0.32;;
68608;SDS011;55581;46.718;7.690;2022-11-20T06:38:36;2.05;;;0.30;;
68608;SDS011;55581;46.718;7.690;2022-11-20T06:41:02;2.93;;;0.80;;
68608;SDS011;55581;46.718;7.690;2022-11-20T06:43:29;3.05;;;0.50;;
68608;SDS011;55581;46.718;7.690;2022-11-20T06:45:57;2.85;;;0.47;;
68608;SDS011;55581;46.718;7.690;2022-11-20T06:48:25;2.50;;;0.50;;
68608;SDS011;55581;46.718;7.690;2022-11-20T06:50:51;2.33;;;0.40;;
68608;SDS011;55581;46.718;7.690;2022-11-20T06:53:18;3.17;;;0.50;;
68608;SDS011;55581;46.718;7.690;2022-11-20T06:55:44;2.75;;;0.60;;
68608;SDS011;55581;46.718;7.690;2022-11-20T06:58:15;2.70;;;0.40;;
68608;SDS011;55581;46.718;7.690;2022-11-20T07:00:41;3.47;;;0.77;;
68608;SDS011;55581;46.718;7.690;2022-11-20T07:03:08;4.75;;;1.67;;
68608;SDS011;55581;46.718;7.690;2022-11-20T07:05:35;5.07;;;1.50;;
68608;SDS011;55581;46.718;7.690;2022-11-20T07:08:01;3.25;;;0.85;;
68608;SDS011;55581;46.718;7.690;2022-11-20T07:10:28;4.90;;;0.73;;
68608;SDS011;55581;46.718;7.690;2022-11-20T07:12:54;2.47;;;0.40;;
68608;SDS011;55581;46.718;7.690;2022-11-20T07:15:20;2.13;;;0.40;;
68608;SDS011;55581;46.718;7.690;2022-11-20T07:17:47;2.08;;;0.40;;
68608;SDS011;55581;46.718;7.690;2022-11-20T07:20:13;2.07;;;0.30;;
68608;SDS011;55581;46.718;7.690;2022-11-20T07:22:39;1.92;;;0.30;;
68608;SDS011;55581;46.718;7.690;2022-11-20T07:25:04;2.80;;;0.50;;
68608;SDS011;55581;46.718;7.690;2022-11-20T07:27:30;3.58;;;0.70;;
68608;SDS011;55581;46.718;7.690;2022-11-20T07:29:58;2.00;;;0.30;;
68608;SDS011;55581;46.718;7.690;2022-11-20T07:32:23;2.85;;;0.45;;
68608;SDS011;55581;46.718;7.690;2022-11-20T07:34:49;4.10;;;0.50;;
68608;SDS011;55581;46.718;7.690;2022-11-20T07:37:14;3.03;;;0.40;;
68608;SDS011;55581;46.718;7.690;2022-11-20T07:39:40;2.35;;;0.55;;
68608;SDS011;55581;46.718;7.690;2022-11-20T07:42:06;2.37;;;0.77;;
68608;SDS011;55581;46.718;7.690;2022-11-20T07:44:32;2.60;;;0.30;;
68608;SDS011;55581;46.718;7.690;2022-11-20T07:46:57;2.13;;;0.40;;
68608;SDS011;55581;46.718;7.690;2022-11-20T07:49:23;3.50;;;0.37;;
68608;SDS011;55581;46.718;7.690;2022-11-20T07:51:51;1.87;;;0.30;;
68608;SDS011;55581;46.718;7.690;2022-11-20T07:54:20;3.75;;;0.30;;
68608;SDS011;55581;46.718;7.690;2022-11-20T07:56:46;4.13;;;1.10;;
68608;SDS011;55581;46.718;7.690;2022-11-20T07:59:12;6.13;;;1.30;;
68608;SDS011;55581;46.718;7.690;2022-11-20T08:01:39;3.00;;;0.60;;
68608;SDS011;55581;46.718;7.690;2022-11-20T08:04:05;51.65;;;28.30;;
68608;SDS011;55581;46.718;7.690;2022-11-20T08:06:31;42.53;;;22.55;;
68608;SDS011;55581;46.718;7.690;2022-11-20T08:08:59;13.88;;;7.45;;
68608;SDS011;55581;46.718;7.690;2022-11-20T08:11:25;12.80;;;5.77;;
68608;SDS011;55581;46.718;7.690;2022-11-20T08:14:09;13.15;;;6.10;;
68608;SDS011;55581;46.718;7.690;2022-11-20T08:16:44;10.57;;;4.60;;
68608;SDS011;55581;46.718;7.690;2022-11-20T08:19:14;7.10;;;1.95;;
68608;SDS011;55581;46.718;7.690;2022-11-20T08:21:41;3.63;;;1.00;;
68608;SDS011;55581;46.718;7.690;2022-11-20T08:24:07;4.53;;;0.93;;
68608;SDS011;55581;46.718;7.690;2022-11-20T08:26:34;2.40;;;0.52;;
68608;SDS011;55581;46.718;7.690;2022-11-20T08:29:00;5.43;;;0.60;;
68608;SDS011;55581;46.718;7.690;2022-11-20T08:31:28;2.90;;;0.50;;
68608;SDS011;55581;46.718;7.690;2022-11-20T08:33:54;4.40;;;0.50;;
68608;SDS011;55581;46.718;7.690;2022-11-20T08:36:20;4.00;;;0.60;;
68608;SDS011;55581;46.718;7.690;2022-11-20T08:38:49;2.67;;;0.60;;
68608;SDS011;55581;46.718;7.690;2022-11-20T08:41:16;4.40;;;0.60;;
68608;SDS011;55581;46.718;7.690;2022-11-20T08:43:57;2.45;;;0.50;;
68608;SDS011;55581;46.718;7.690;2022-11-20T08:46:25;4.22;;;1.02;;
68608;SDS011;55581;46.718;7.690;2022-11-20T08:48:52;2.63;;;0.57;;
68608;SDS011;55581;46.718;7.690;2022-11-20T08:51:21;1.67;;;0.30;;
68608;SDS011;55581;46.718;7.690;2022-11-20T08:53:49;4.07;;;0.33;;
68608;SDS011;55581;46.718;7.690;2022-11-20T08:56:15;3.13;;;0.47;;
68608;SDS011;55581;46.718;7.690;2022-11-20T08:58:41;2.33;;;0.50;;
68608;SDS011;55581;46.718;7.690;2022-11-20T09:01:07;2.33;;;0.40;;
68608;SDS011;55581;46.718;7.690;2022-11-20T09:03:32;1.50;;;0.30;;
68608;SDS011;55581;46.718;7.690;2022-11-20T09:06:02;2.47;;;0.30;;
68608;SDS011;55581;46.718;7.690;2022-11-20T09:08:32;1.58;;;0.30;;
68608;SDS011;55581;46.718;7.690;2022-11-20T09:10:59;2.92;;;0.40;;
68608;SDS011;55581;46.718;7.690;2022-11-20T09:13:26;2.08;;;0.52;;
68608;SDS011;55581;46.718;7.690;2022-11-20T09:15:55;2.17;;;0.30;;
68608;SDS011;55581;46.718;7.690;2022-11-20T09:18:25;2.67;;;0.37;;
68608;SDS011;55581;46.718;7.690;2022-11-20T09:20:51;3.08;;;0.40;;
68608;SDS011;55581;46.718;7.690;2022-11-20T09:23:19;3.05;;;0.30;;
68608;SDS011;55581;46.718;7.690;2022-11-20T09:25:47;1.38;;;0.17;;
68608;SDS011;55581;46.718;7.690;2022-11-20T09:28:13;1.73;;;0.33;;
68608;SDS011;55581;46.718;7.690;2022-11-20T09:30:38;3.43;;;0.23;;
68608;SDS011;55581;46.718;7.690;2022-11-20T09:33:04;2.07;;;0.20;;
68608;SDS011;55581;46.718;7.690;2022-11-20T09:35:31;6.18;;;1.58;;
68608;SDS011;55581;46.718;7.690;2022-11-20T09:38:03;2.35;;;0.35;;
68608;SDS011;55581;46.718;7.690;2022-11-20T09:40:29;1.95;;;0.30;;
68608;SDS011;55581;46.718;7.690;2022-11-20T09:57:26;2.97;;;0.90;;
68608;SDS011;55581;46.718;7.690;2022-11-20T09:59:41;3.22;;;0.60;;
68608;SDS011;55581;46.718;7.690;2022-11-20T10:07:40;3.88;;;0.73;;
68608;SDS011;55581;46.718;7.690;2022-11-20T10:10:16;3.15;;;0.88;;
68608;SDS011;55581;46.718;7.690;2022-11-20T10:15:44;3.35;;;0.70;;
68608;SDS011;55581;46.718;7.690;2022-11-20T10:18:44;2.30;;;0.47;;
68608;SDS011;55581;46.718;7.690;2022-11-20T10:29:42;3.33;;;0.50;;
68608;SDS011;55581;46.718;7.690;2022-11-20T10:32:20;2.73;;;0.70;;
68608;SDS011;55581;46.718;7.690;2022-11-20T10:34:59;2.20;;;0.40;;
68608;SDS011;55581;46.718;7.690;2022-11-20T10:37:31;3.60;;;0.60;;
68608;SDS011;55581;46.718;7.690;2022-11-20T10:43:01;5.47;;;0.60;;
68608;SDS011;55581;46.718;7.690;2022-11-20T10:45:35;2.87;;;0.60;;
68608;SDS011;55581;46.718;7.690;2022-11-20T10:48:19;2.97;;;0.57;;
68608;SDS011;55581;46.718;7.690;2022-11-20T10:50:53;3.08;;;0.85;;
68608;SDS011;55581;46.718;7.690;2022-11-20T10:56:19;3.20;;;0.90;;
68608;SDS011;55581;46.718;7.690;2022-11-20T11:01:30;3.78;;;0.75;;
68608;SDS011;55581;46.718;7.690;2022-11-20T11:03:56;3.90;;;0.70;;
68608;SDS011;55581;46.718;7.690;2022-11-20T11:06:29;3.78;;;0.43;;
68608;SDS011;55581;46.718;7.690;2022-11-20T11:09:03;2.60;;;0.60;;
68608;SDS011;55581;46.718;7.690;2022-11-20T11:11:37;2.08;;;0.50;;
68608;SDS011;55581;46.718;7.690;2022-11-20T11:14:07;2.65;;;0.40;;
68608;SDS011;55581;46.718;7.690;2022-11-20T11:16:40;2.93;;;0.40;;
68608;SDS011;55581;46.718;7.690;2022-11-20T11:19:14;2.63;;;0.38;;
68608;SDS011;55581;46.718;7.690;2022-11-20T11:21:46;2.90;;;0.50;;
68608;SDS011;55581;46.718;7.690;2022-11-20T11:24:24;2.00;;;0.35;;
68608;SDS011;55581;46.718;7.690;2022-11-20T11:26:58;3.90;;;0.55;;
68608;SDS011;55581;46.718;7.690;2022-11-20T11:29:29;2.25;;;0.40;;
68608;SDS011;55581;46.718;7.690;2022-11-20T11:35:02;2.03;;;0.40;;
68608;SDS011;55581;46.718;7.690;2022-11-20T11:37:37;2.75;;;0.60;;
68608;SDS011;55581;46.718;7.690;2022-11-20T11:40:06;2.38;;;0.55;;
68608;SDS011;55581;46.718;7.690;2022-11-20T11:42:39;3.60;;;0.52;;
68608;SDS011;55581;46.718;7.690;2022-11-20T11:45:14;5.30;;;0.38;;
68608;SDS011;55581;46.718;7.690;2022-11-20T11:52:44;1.87;;;0.33;;
68608;SDS011;55581;46.718;7.690;2022-11-20T12:01:02;3.03;;;0.57;;
68608;SDS011;55581;46.718;7.690;2022-11-20T12:03:39;2.63;;;0.80;;
68608;SDS011;55581;46.718;7.690;2022-11-20T12:06:14;2.13;;;0.50;;
68608;SDS011;55581;46.718;7.690;2022-11-20T12:08:53;3.35;;;0.50;;
68608;SDS011;55581;46.718;7.690;2022-11-20T12:11:29;3.20;;;0.60;;
68608;SDS011;55581;46.718;7.690;2022-11-20T12:14:09;2.55;;;0.50;;
68608;SDS011;55581;46.718;7.690;2022-11-20T12:16:51;2.40;;;0.35;;
68608;SDS011;55581;46.718;7.690;2022-11-20T12:19:18;2.37;;;0.30;;
68608;SDS011;55581;46.718;7.690;2022-11-20T12:32:40;1.77;;;0.50;;
68608;SDS011;55581;46.718;7.690;2022-11-20T12:38:12;3.05;;;0.40;;
68608;SDS011;55581;46.718;7.690;2022-11-20T12:40:57;2.08;;;0.30;;
68608;SDS011;55581;46.718;7.690;2022-11-20T12:44:01;3.65;;;0.65;;
68608;SDS011;55581;46.718;7.690;2022-11-20T12:47:08;2.30;;;0.60;;
68608;SDS011;55581;46.718;7.690;2022-11-20T12:57:59;1.90;;;0.57;;
68608;SDS011;55581;46.718;7.690;2022-11-20T13:00:31;3.37;;;0.60;;
68608;SDS011;55581;46.718;7.690;2022-11-20T13:05:40;3.25;;;1.30;;
68608;SDS011;55581;46.718;7.690;2022-11-20T13:08:28;3.05;;;0.50;;
68608;SDS011;55581;46.718;7.690;2022-11-20T13:11:09;2.35;;;0.50;;
68608;SDS011;55581;46.718;7.690;2022-11-20T13:19:03;2.90;;;0.80;;
68608;SDS011;55581;46.718;7.690;2022-11-20T13:21:42;4.15;;;0.80;;
68608;SDS011;55581;46.718;7.690;2022-11-20T13:29:46;2.17;;;0.50;;
68608;SDS011;55581;46.718;7.690;2022-11-20T13:32:25;2.92;;;0.70;;
68608;SDS011;55581;46.718;7.690;2022-11-20T13:34:58;2.17;;;0.63;;
68608;SDS011;55581;46.718;7.690;2022-11-20T13:42:33;3.15;;;0.55;;
68608;SDS011;55581;46.718;7.690;2022-11-20T13:45:08;2.95;;;0.88;;
68608;SDS011;55581;46.718;7.690;2022-11-20T13:47:35;2.25;;;0.60;;
68608;SDS011;55581;46.718;7.690;2022-11-20T13:50:02;2.60;;;0.60;;
68608;SDS011;55581;46.718;7.690;2022-11-20T13:52:39;2.65;;;0.68;;
68608;SDS011;55581;46.718;7.690;2022-11-20T13:58:05;4.90;;;0.80;;
68608;SDS011;55581;46.718;7.690;2022-11-20T14:00:32;5.20;;;0.40;;
68608;SDS011;55581;46.718;7.690;2022-11-20T14:05:55;2.00;;;0.43;;
68608;SDS011;55581;46.718;7.690;2022-11-20T14:08:39;2.53;;;0.57;;
68608;SDS011;55581;46.718;7.690;2022-11-20T14:11:18;2.53;;;0.60;;
68608;SDS011;55581;46.718;7.690;2022-11-20T14:16:20;2.43;;;0.60;;
68608;SDS011;55581;46.718;7.690;2022-11-20T14:18:47;2.58;;;0.45;;
68608;SDS011;55581;46.718;7.690;2022-11-20T14:21:25;2.70;;;0.65;;
68608;SDS011;55581;46.718;7.690;2022-11-20T14:23:52;2.42;;;0.43;;
68608;SDS011;55581;46.718;7.690;2022-11-20T14:26:19;3.47;;;0.65;;
68608;SDS011;55581;46.718;7.690;2022-11-20T14:28:48;3.13;;;0.40;;
68608;SDS011;55581;46.718;7.690;2022-11-20T14:31:25;2.30;;;0.68;;
68608;SDS011;55581;46.718;7.690;2022-11-20T14:33:53;2.88;;;0.63;;
68608;SDS011;55581;46.718;7.690;2022-11-20T14:36:23;1.80;;;0.43;;
68608;SDS011;55581;46.718;7.690;2022-11-20T14:38:50;3.70;;;0.57;;
68608;SDS011;55581;46.718;7.690;2022-11-20T14:41:26;1.80;;;0.50;;
68608;SDS011;55581;46.718;7.690;2022-11-20T14:43:57;1.70;;;0.30;;
68608;SDS011;55581;46.718;7.690;2022-11-20T14:46:25;2.83;;;0.52;;
68608;SDS011;55581;46.718;7.690;2022-11-20T14:48:55;2.22;;;0.52;;
68608;SDS011;55581;46.718;7.690;2022-11-20T14:53:54;3.20;;;0.33;;
68608;SDS011;55581;46.718;7.690;2022-11-20T14:56:23;2.72;;;0.57;;
68608;SDS011;55581;46.718;7.690;2022-11-20T14:58:55;2.20;;;0.50;;
68608;SDS011;55581;46.718;7.690;2022-11-20T15:01:28;2.60;;;0.50;;
68608;SDS011;55581;46.718;7.690;2022-11-20T15:04:06;2.83;;;0.70;;
68608;SDS011;55581;46.718;7.690;2022-11-20T15:06:34;3.13;;;0.50;;
68608;SDS011;55581;46.718;7.690;2022-11-20T15:09:03;3.22;;;0.73;;
68608;SDS011;55581;46.718;7.690;2022-11-20T15:11:31;2.77;;;0.50;;
68608;SDS011;55581;46.718;7.690;2022-11-20T15:14:03;3.22;;;0.60;;
68608;SDS011;55581;46.718;7.690;2022-11-20T15:16:31;2.35;;;0.60;;
68608;SDS011;55581;46.718;7.690;2022-11-20T15:19:00;2.90;;;0.60;;
68608;SDS011;55581;46.718;7.690;2022-11-20T15:21:27;2.35;;;0.47;;
68608;SDS011;55581;46.718;7.690;2022-11-20T15:23:57;2.50;;;0.63;;
68608;SDS011;55581;46.718;7.690;2022-11-20T15:26:24;2.92;;;0.50;;
68608;SDS011;55581;46.718;7.690;2022-11-20T15:28:51;3.13;;;0.52;;
68608;SDS011;55581;46.718;7.690;2022-11-20T15:31:18;1.83;;;0.40;;
68608;SDS011;55581;46.718;7.690;2022-11-20T15:33:45;2.95;;;0.57;;
68608;SDS011;55581;46.718;7.690;2022-11-20T15:36:10;2.63;;;0.40;;
68608;SDS011;55581;46.718;7.690;2022-11-20T15:38:36;3.73;;;0.53;;
68608;SDS011;55581;46.718;7.690;2022-11-20T15:41:02;3.38;;;0.82;;
68608;SDS011;55581;46.718;7.690;2022-11-20T15:43:30;2.00;;;0.60;;
68608;SDS011;55581;46.718;7.690;2022-11-20T15:45:56;3.47;;;0.43;;
68608;SDS011;55581;46.718;7.690;2022-11-20T15:48:27;2.78;;;0.47;;
68608;SDS011;55581;46.718;7.690;2022-11-20T15:53:27;3.30;;;0.52;;
68608;SDS011;55581;46.718;7.690;2022-11-20T15:55:53;3.10;;;0.33;;
68608;SDS011;55581;46.718;7.690;2022-11-20T15:58:19;4.63;;;1.05;;
68608;SDS011;55581;46.718;7.690;2022-11-20T16:00:44;3.83;;;0.70;;
68608;SDS011;55581;46.718;7.690;2022-11-20T16:03:14;3.80;;;0.40;;
68608;SDS011;55581;46.718;7.690;2022-11-20T16:05:41;3.73;;;1.30;;
68608;SDS011;55581;46.718;7.690;2022-11-20T16:08:08;2.72;;;0.60;;
68608;SDS011;55581;46.718;7.690;2022-11-20T16:10:35;6.90;;;1.33;;
68608;SDS011;55581;46.718;7.690;2022-11-20T16:13:01;4.82;;;1.35;;
68608;SDS011;55581;46.718;7.690;2022-11-20T16:16:07;5.60;;;2.23;;
68608;SDS011;55581;46.718;7.690;2022-11-20T16:18:35;4.60;;;1.80;;
68608;SDS011;55581;46.718;7.690;2022-11-20T16:21:02;5.32;;;1.40;;
68608;SDS011;55581;46.718;7.690;2022-11-20T16:23:35;7.97;;;2.75;;
68608;SDS011;55581;46.718;7.690;2022-11-20T16:26:08;5.07;;;1.87;;
68608;SDS011;55581;46.718;7.690;2022-11-20T16:28:42;5.38;;;1.58;;
68608;SDS011;55581;46.718;7.690;2022-11-20T16:31:09;4.63;;;1.25;;
68608;SDS011;55581;46.718;7.690;2022-11-20T16:33:38;4.03;;;0.80;;
68608;SDS011;55581;46.718;7.690;2022-11-20T16:36:09;3.47;;;0.93;;
68608;SDS011;55581;46.718;7.690;2022-11-20T16:38:36;4.32;;;1.67;;
68608;SDS011;55581;46.718;7.690;2022-11-20T16:41:02;4.43;;;1.00;;
68608;SDS011;55581;46.718;7.690;2022-11-20T16:43:32;4.28;;;0.75;;
68608;SDS011;55581;46.718;7.690;2022-11-20T16:45:59;3.55;;;0.88;;
68608;SDS011;55581;46.718;7.690;2022-11-20T16:48:29;5.32;;;1.58;;
68608;SDS011;55581;46.718;7.690;2022-11-20T16:50:54;3.20;;;1.00;;